TimeMDT,TemperatureF,Dew PointF,Humidity,Sea Level PressureIn,VisibilityMPH,Wind Direction,Wind SpeedMPH,Gust SpeedMPH,PrecipitationIn,Events,Conditions,WindDirDegrees,DateUTC
12:53 AM,36.0,28.9,76,30.17,10.0,Calm,Calm,-,N/A,,Clear,0,2012-10-10 06:53:00
1:53 AM,32.0,26.1,79,30.17,10.0,SSW,6.9,-,N/A,,Clear,200,2012-10-10 07:53:00
2:53 AM,28.9,24.1,82,30.16,10.0,SSW,3.5,-,N/A,,Clear,210,2012-10-10 08:53:00
3:53 AM,27.0,21.0,78,30.14,10.0,SSW,4.6,-,N/A,,Clear,200,2012-10-10 09:53:00
4:53 AM,27.0,23.0,85,30.13,10.0,Calm,Calm,-,N/A,,Clear,0,2012-10-10 10:53:00
5:53 AM,26.1,21.9,84,30.12,10.0,South,4.6,-,N/A,,Clear,180,2012-10-10 11:53:00
6:53 AM,26.1,21.0,81,30.14,10.0,South,4.6,-,N/A,,Clear,190,2012-10-10 12:53:00
7:53 AM,26.1,21.0,81,30.14,10.0,South,3.5,-,N/A,,Clear,180,2012-10-10 13:53:00
8:53 AM,30.9,21.9,69,30.13,10.0,SW,3.5,-,N/A,,Clear,230,2012-10-10 14:53:00
9:53 AM,37.9,24.1,57,30.11,10.0,Calm,Calm,-,N/A,,Clear,0,2012-10-10 15:53:00
10:53 AM,46.0,26.1,46,30.07,10.0,Calm,Calm,-,N/A,,Clear,0,2012-10-10 16:53:00
11:53 AM,54.0,26.1,34,30.01,10.0,Variable,3.5,-,N/A,,Clear,0,2012-10-10 17:53:00
12:53 PM,60.1,25.0,26,29.96,10.0,Variable,3.5,-,N/A,,Clear,0,2012-10-10 18:53:00
1:53 PM,64.0,25.0,23,29.92,10.0,East,4.6,-,N/A,,Clear,80,2012-10-10 19:53:00
2:53 PM,66.9,24.1,20,29.90,10.0,East,5.8,-,N/A,,Clear,80,2012-10-10 20:53:00
3:53 PM,66.9,23.0,19,29.88,10.0,Calm,Calm,-,N/A,,Clear,0,2012-10-10 21:53:00
4:53 PM,69.1,23.0,18,29.86,10.0,NE,6.9,-,N/A,,Clear,50,2012-10-10 22:53:00
5:53 PM,68.0,24.1,19,29.86,10.0,Calm,Calm,-,N/A,,Clear,0,2012-10-10 23:53:00
6:53 PM,54.0,23.0,30,29.90,10.0,ESE,5.8,-,N/A,,Clear,120,2012-10-11 00:53:00
7:53 PM,48.0,24.1,39,29.93,10.0,Calm,Calm,-,N/A,,Clear,0,2012-10-11 01:53:00
8:53 PM,51.1,26.1,38,29.93,10.0,NE,5.8,-,N/A,,Clear,40,2012-10-11 02:53:00
9:53 PM,45.0,26.1,48,29.94,10.0,ESE,4.6,-,N/A,,Clear,110,2012-10-11 03:53:00
10:53 PM,44.1,26.1,49,29.93,10.0,Calm,Calm,-,N/A,,Clear,0,2012-10-11 04:53:00
11:53 PM,42.1,24.1,49,29.95,10.0,SSW,4.6,-,N/A,,Clear,200,2012-10-11 05:53:00